Terminal Aerodrome Forecast
Issued by NWS

Home | Current Version | Previous Version | Text Only | Print | Product List | Glossary Off
Versions: 1 2 3 4 5 6 7 8 9 10 11 12 13 14 15 16 17

194
FTUS43 KOAX 182331
TAFCDR
TAF
KCDR 182331Z 1900/1924 08009KT P6SM SCT120
     FM190300 12009KT P6SM SCT120
     FM190900 18009KT P6SM SCT120
     FM191800 23011G22KT P6SM SCT080=

USA.gov is the U.S. government's official web portal to all federal, state and local government web resources and services.